Terminal Aerodrome Forecast
Issued by NWS Rapid City, SD

Home | Current Version | Previous Version | Text Only | Print | Product List | Glossary On
Versions: 1 2 3 4 5 6 7 8 9 10 11 12 13 14 15 16 17 18 19
000
FTUS43 KUNR 220900 AAA
TAFRAP
TAF AMD
KRAP 220924Z 2209/2306 35015KT P6SM OVC006
     FM221100 35015KT P6SM OVC015
     FM221600 36011KT P6SM BKN025
     FM230000 04012KT P6SM -SHRA OVC035=

USA.gov is the U.S. government's official web portal to all federal, state and local government web resources and services.